Airfield :
LOGIN :

Register | Disclaimer

   EN    FR    IT 

 










Legend :    VFR   Marginal VFR   IFR   Intensive IFR   Very Intensive IFR
Visi :
Ceiling :
>= 8 km
>= 3000ft
5 to 8 km
1000 to 3000 ft
1500m to 5 km
500 to 1000 ft
800 to 1500m
200 to 500 ft
< 800m
< 200 ft
Symbols :   Thunderstorms  Fog  Heavy snow  Heavy precipitations  Wind > 20 kt
SIGMETs :     Misc.  Thunderstorms  Icing  Turbulence  Mountain Waves  Volcanic Ashes






- Airport Elevation : 160 ft
- IATA code : FMO


EDDG - Münster Osnabrück Int.

CURRENT METAR :
  • 270650Z 20006KT 160V230 9000 BKN008 02/01 Q1002 BECMG SCT009

EXPIRED METARs :
  • 270620Z 20006KT 160V220 8000 BKN007 02/01 Q1002 NOSIG
  • 270550Z 21006KT 170V240 8000 BKN007 02/01 Q1003 TEMPO SCT009
  • 270520Z 21007KT 180V240 9000 BKN007 02/01 Q1003 TEMPO SCT009
  • 270450Z 22006KT 9000 BKN007 02/00 Q1003 TEMPO SCT009
  • 270420Z 23008KT 9999 BKN007 02/00 Q1004 TEMPO SCT009

TAF TAF EDDG
Valid from the 27 at 06:00 until the 28 at 06:00 UTC


270500Z 2706/2806 24009KT 9999 BKN007
BECMG 2706/2709 18008KT BKN020
BECMG 2712/2715 10005KT
TEMPO 2714/2717 VRB03KT BKN012
BECMG 2717/2719 27007KT BKN010
TEMPO 2718/2724 4000 SNRA BKN007
PROB40
TEMPO 2718/2724 1400 SN BKN004
BECMG 2801/2804 SCT012



MET'MAP, your aeronautical weather chart ! - Copyright ORBIFLY December 2007 - Disclaimer

ORBIFLY MET'MAP TEAM :

Programming & Development : Alexandra Zaïnal
Concept & original design : Baudouin d'Aumeries
Assistance for programming : Marc-Olivier Méhu
Technical & hardware support : Manuel Goepfert

Contact : metmap@orbifly.com




SOURCES & CREDITS :

   NOAA